• Join FlightAware (Why Join?)
  • Login
  • US Flag 
06:31PM EDT


 

Airport Tracker/Info


-or-


 

Live Flight TrackerFlight Track Log ✈ RPA3392 ✈ 06-May-2013 ✈ KMSP - KDCA

Flight Track Log - Related Links

Times and Time Zones

All times are in EDT time to prevent confusion due to time zone crossing. See the RPA3392 flight status page for this flight to view local times or setup timezone preferences in your user account.

Time Position Orientation Groundspeed Altitude Reporting Facility
EDT Latitude Longitude Course Direction KTS MPH feet Rate Location/Type
06:35PM 44.9167 -93.2333 117° Southeast 166 191 2,600  Level Minneapolis TRACON
06:37PM 44.7566 -92.7651 111° Southeast  Level Estimated
06:37PM 44.9978 -93.2069 13° North 244 281 4,900  Level Minneapolis Center
06:38PM 44.7145 -92.6133 113° Southeast  Level Estimated
06:39PM 44.6721 -92.4617 125° Southeast  Level Estimated
06:39PM 44.9689 -92.9792 100° East 283 326 11,100  Level Minneapolis Center
06:40PM 44.6295 -92.3104 117° Southeast  Level Estimated
06:40PM 44.9128 -92.8725 127° Southeast 334 384 12,700  Level Minneapolis Center
06:41PM 44.8539 -92.7608 127° Southeast 351 404 14,700 1,860 Climbing Minneapolis Center
06:43PM 44.7794 -92.4982 113° Southeast  Level Estimated
06:43PM 44.7303 -92.5317 113° Southeast 365 420 18,500  Level Minneapolis Center
06:44PM 44.6556 -92.3939 127° Southeast 368 423 20,300 1,440 Climbing Minneapolis Center
06:46PM 44.5857 -92.1470 115° Southeast  Level Estimated
06:46PM 44.5250 -92.1508 115° Southeast 388 447 23,000  Level Minneapolis Center
06:47PM 44.4792 -92.0094 114° Southeast 400 460 24,100 1,140 Climbing Minneapolis Center
06:48PM 44.4286 -91.8683 117° Southeast 405 466 25,400 1,020 Climbing Minneapolis Center
06:49PM 44.3794 -91.7236 115° Southeast 409 471 26,300 960 Climbing Minneapolis Center
06:50PM 44.3189 -91.5486 116° Southeast 415 478 27,500 1,080 Climbing Minneapolis Center
06:51PM 44.2661 -91.3992 116° Southeast 422 486 28,600 1,380 Climbing Minneapolis Center
06:52PM 44.2164 -91.2506 115° Southeast 427 491 30,400 1,500 Climbing Minneapolis Center
06:53PM 44.1647 -91.1028 116° Southeast 428 493 31,800 1,320 Climbing Minneapolis Center
06:54PM 44.1136 -90.9572 116° Southeast 426 490 33,200 1,020 Climbing Minneapolis Center
06:56PM 44.0067 -90.6603 117° Southeast 403 464 35,000 540 Climbing Chicago Center
06:57PM 43.9581 -90.5242 116° Southeast 397 457 35,000  Level Chicago Center
06:58PM 43.9147 -90.4017 116° Southeast 398 458 35,000  Level Minneapolis Center
07:00PM 43.8635 -90.2283 118° Southeast  Level Estimated
07:00PM 43.8047 -90.1050 118° Southeast 398 458 35,000  Level Chicago Center
07:01PM 43.7469 -89.9442 116° Southeast 399 459 35,000  Level Minneapolis Center
07:02PM 43.6961 -89.8078 117° Southeast 399 459 35,000  Level Minneapolis Center
07:05PM 43.5944 -89.5356 117° Southeast 401 461 35,000  Level Chicago Center
07:06PM 43.5450 -89.4008 117° Southeast 396 456 35,000  Level Chicago Center
07:07PM 43.4928 -89.2653 118° Southeast 400 460 35,000  Level Chicago Center
07:09PM 43.3819 -88.9731 117° Southeast 399 459 35,000  Level Chicago Center
07:10PM 43.3308 -88.8392 118° Southeast 400 460 35,000  Level Chicago Center
07:12PM 43.2289 -88.5756 118° Southeast 395 455 35,000  Level Chicago Center
07:14PM 43.1203 -88.2908 118° Southeast 393 452 35,000  Level Chicago Center
07:15PM 43.1011 -88.1425 100° East 399 459 35,000  Level Chicago Center
07:16PM 43.0856 -87.9947 98° East 396 456 35,000  Level Chicago Center
07:17PM 43.0656 -87.8153 99° East 409 471 35,000  Level Chicago Center
07:18PM 43.0497 -87.6608 98° East 412 474 35,000  Level Chicago Center
07:19PM 43.0319 -87.5083 99° East 409 471 35,000  Level Chicago Center
07:21PM 42.9969 -87.1947 99° East 410 472 35,000  Level Chicago Center
07:23PM 42.9639 -86.9751 99° East  Level FlightAware Approximate
07:23PM 42.9600 -86.8883 99° East 410 472 35,000  Level Chicago Center
07:24PM 42.9417 -86.7339 99° East 413 475 35,000  Level Chicago Center
07:25PM 42.9197 -86.5508 99° East 409 471 35,000  Level Chicago Center
07:26PM 42.9014 -86.3972 99° East 412 474 35,000  Level Chicago Center
07:27PM 42.8825 -86.2456 100° East 412 474 35,000  Level Chicago Center
07:28PM 42.8633 -86.0933 100° East 414 476 35,000  Level Chicago Center
07:29PM 42.8403 -85.9125 100° East 413 475 35,000  Level Chicago Center
07:30PM 42.8206 -85.7600 100° East 414 476 35,000  Level Chicago Center
07:31PM 42.8011 -85.6081 100° East 411 473 35,000  Level Chicago Center
07:32PM 42.7731 -85.4575 104° East 412 474 35,000  Level Chicago Center
07:33PM 42.7244 -85.3192 116° Southeast 405 466 35,000  Level Chicago Center
07:34PM 42.6750 -85.1792 116° Southeast 410 472 35,000  Level Chicago Center
07:37PM 42.5672 -84.8731 115° Southeast 409 471 35,000  Level Chicago Center
07:38PM 42.5172 -84.7350 116° Southeast 409 471 35,000  Level Chicago Center
07:39PM 42.4600 -84.6222 124° Southeast 408 470 35,000  Level Cleveland Center
07:41PM 42.3481 -84.3594 120° Southeast 408 470 35,000  Level Cleveland Center
07:42PM 42.2897 -84.2294 121° Southeast 408 470 35,000  Level Cleveland Center
07:44PM 42.1631 -83.9300 120° Southeast 401 461 35,000  Level Chicago Center
07:45PM 42.1200 -83.8447 124° Southeast 397 457 35,000  Level Cleveland Center
07:46PM 42.0631 -83.7158 121° Southeast 397 457 35,000  Level Cleveland Center
07:47PM 42.0061 -83.5872 121° Southeast 397 457 35,000  Level Cleveland Center
07:49PM 41.8917 -83.3308 121° Southeast 397 457 35,000  Level Cleveland Center
07:50PM 41.8342 -83.2056 122° Southeast 397 457 35,000  Level Cleveland Center
07:51PM 41.7786 -83.0781 120° Southeast 397 457 35,000  Level Cleveland Center
07:52PM 41.7186 -82.9506 122° Southeast 397 457 35,000  Level Cleveland Center
07:54PM 41.5692 -82.7119 130° Southeast 392 451 35,000  Level Cleveland Center
07:55PM 41.4917 -82.6067 134° Southeast 397 457 35,000  Level Cleveland Center
07:56PM 41.4144 -82.5047 135° Southeast 397 457 35,000  Level Cleveland Center
07:57PM 41.3347 -82.4028 136° Southeast 397 457 35,000  Level Cleveland Center
07:58PM 41.2592 -82.3011 135° Southeast 392 451 35,000  Level Cleveland Center
07:59PM 41.1794 -82.1969 135° Southeast 392 451 35,000  Level Cleveland Center
08:00PM 41.1017 -82.0931 135° Southeast 392 451 35,000  Level Cleveland Center
08:01PM 41.0236 -81.9922 136° Southeast 392 451 35,000  Level Cleveland Center
08:02PM 40.9456 -81.8944 137° Southeast 392 451 35,000  Level Cleveland Center
08:03PM 40.8675 -81.7911 135° Southeast 397 457 35,000  Level Cleveland Center
08:04PM 40.7872 -81.6883 136° Southeast 397 457 35,000  Level Cleveland Center
08:05PM 40.7192 -81.5994 135° Southeast 397 457 35,000  Level Cleveland Center
08:06PM 40.6367 -81.4969 137° Southeast 397 457 35,000  Level Cleveland Center
08:07PM 40.5625 -81.3922 133° Southeast 397 457 35,000  Level Cleveland Center
08:08PM 40.4839 -81.2928 136° Southeast 392 451 35,000  Level Cleveland Center
08:09PM 40.4053 -81.1939 136° Southeast 392 451 35,000  Level Cleveland Center
08:10PM 40.3286 -81.0950 135° Southeast 392 451 35,000  Level Cleveland Center
08:11PM 40.2478 -80.9967 137° Southeast 397 457 35,000 -300 Level Cleveland Center
08:12PM 40.1689 -80.8956 136° Southeast 397 457 34,500 -780 Descending Cleveland Center
08:13PM 40.0900 -80.8003 137° Southeast 397 457 33,500 -1,020 Descending Cleveland Center
08:14PM 40.0144 -80.7059 136° Southeast  Level FlightAware Approximate
08:15PM 39.9294 -80.5992 136° Southeast 397 457 31,600  Level Cleveland Center
08:16PM 39.8483 -80.4992 137° Southeast 397 457 31,000 -300 Descending Cleveland Center
08:17PM 39.7689 -80.3967 135° Southeast 397 457 31,000  Level Cleveland Center
08:18PM 39.6206 -80.2200 137° Southeast 396 456 31,000  Level Washington Center
08:20PM 39.4572 -80.0214 137° Southeast 401 461 31,000  Level Washington Center
08:22PM 39.3000 -79.8133 134° Southeast 401 461 31,000  Level Washington Center
08:23PM 39.2822 -79.6647 99° East 385 443 31,000  Level Washington Center
08:24PM 39.2725 -79.5167 95° East 391 450 31,000 -480 Level Washington Center
08:25PM 39.2606 -79.3686 96° East 398 458 30,100 -1,620 Descending Washington Center
08:26PM 39.2464 -79.2231 97° East 409 471 27,800 -1,500 Descending Washington Center
08:28PM 39.2274 -79.0694 99° East  Level FlightAware Approximate
08:28PM 39.2233 -78.9381 99° East 404 465 25,700  Level Washington Center
08:31PM 39.1833 -78.5667 98° East 366 421 20,100 -2,100 Descending Potomac TRACON
08:31PM 39.1836 -78.5425 89° East 369 425 19,600 -1,680 Descending Washington Center
08:32PM 39.1700 -78.4161 98° East 369 425 17,800 -1,500 Descending Washington Center
08:34PM 39.1333 -78.2167 103° East 338 389 15,800 -1,200 Descending Potomac TRACON
08:34PM 39.1189 -78.1842 120° Southeast 345 397 15,500 -840 Descending Washington Center
08:35PM 39.0900 -78.0708 108° East 333 383 14,600 -1,080 Descending Washington Center
08:37PM 39.0500 -77.8833 105° East 318 366 12,900 -1,080 Descending Potomac TRACON
08:37PM 39.0358 -77.8550 123° Southeast 317 365 12,500 -1,320 Descending Washington Center
08:38PM 39.0067 -77.7472 109° East 301 346 11,000 -960 Descending Washington Center
08:40PM 38.9667 -77.6000 109° East 268 308 10,200 -840 Descending Potomac TRACON
08:41PM 38.9333 -77.5167 117° Southeast 260 299 8,900 -1,200 Descending Potomac TRACON
08:42PM 38.9000 -77.4333 117° Southeast 237 273 7,800 -1,080 Descending Potomac TRACON
08:43PM 38.8833 -77.3667 108° East 207 238 6,800 -900 Descending Potomac TRACON
08:44PM 38.8500 -77.3167 131° Southeast 176 203 6,000 -420 Descending Potomac TRACON
08:45PM 38.8333 -77.2500 108° East 177 204 6,000  Level Potomac TRACON
08:46PM 38.8000 -77.2000 131° Southeast 177 204 6,000  Level Potomac TRACON
08:47PM 38.7833 -77.1500 113° Southeast 178 205 6,000 -540 Level Potomac TRACON
08:48PM 38.7500 -77.1167 142° Southeast 184 212 5,000 -1,020 Descending Potomac TRACON
08:49PM 38.7000 -77.1167 180° South 180 207 4,100 -540 Descending Potomac TRACON
08:50PM 38.6500 -77.1000 165° South 172 198 4,000 -60 Descending Potomac TRACON
08:51PM 38.6000 -77.1000 180° South 153 176 4,000 -360 Level Potomac TRACON
08:52PM 38.6000 -77.0500 90° East 162 186 3,300 -780 Descending Potomac TRACON
08:53PM 38.6333 -77.0167 38° Northeast 182 209 2,500 -840 Descending Potomac TRACON